Startpagina
METAR-TAF:

METAR-TAF

Vliegvelden :

Hoorn-a, Nederland

Productieplatform

breedte: 52-55-05N, lengte: 4-09-01E, hoogte: 41 m

Actueel weer

Dit bericht is 46 minuten geleden gemaakt, om 06:55 UTC
Wind 13 kt uit het westnoordwesten
Temperatuur 10°C
Vochtigheid 62%
Druk 1006 hPa
Zicht 10 km of meer
Weinig wolken op 2700 ft
Verspreide wolken op 3400 ft

METAR: EHQE 240655Z AUTO 29013KT 9999 FEW027 SCT034 10/03 Q1006

Tijdstip: 08:41 (07:41 UTC)


TAF: ontbreekt

Waarnemingen en weersverwachtingen van meer dan 4000 vliegvelden (METAR en TAF).

De beschikbare stations zijn de gele en rode punten op de kaart.

Ga met uw muis naar het station om de naam te zien.

Klik dan om waarnemingen en weersverwachtingen te zien.

kaart wijzigen: klik op de groene knoppen met een zwart kruis om in te zoomen, op de groene knop met een streepje om uit te zoomen of op de groene pijlen voor aangrenzende kaarten.


METAR-TAF: